sensor_id;sensor_type;location;lat;lon;timestamp;pressure;altitude;pressure_sealevel;temperature;humidity
58739;BME280;44512;53.046;18.604;2023-04-10T00:04:50;102648.79;;;10.39;55.23
58739;BME280;44512;53.046;18.604;2023-04-10T00:15:18;102651.69;;;10.28;55.39
58739;BME280;44512;53.046;18.604;2023-04-10T00:25:47;102650.85;;;10.18;55.55
58739;BME280;44512;53.046;18.604;2023-04-10T00:36:17;102651.78;;;10.09;55.74
58739;BME280;44512;53.046;18.604;2023-04-10T00:46:44;102644.71;;;9.98;55.94
58739;BME280;44512;53.046;18.604;2023-04-10T00:57:12;102660.14;;;9.88;56.12
58739;BME280;44512;53.046;18.604;2023-04-10T01:18:16;102654.38;;;9.63;56.46
58739;BME280;44512;53.046;18.604;2023-04-10T01:39:07;102658.57;;;9.38;56.79
58739;BME280;44512;53.046;18.604;2023-04-10T01:49:35;102658.05;;;9.25;57.04
58739;BME280;44512;53.046;18.604;2023-04-10T02:00:03;102651.08;;;9.13;57.23
58739;BME280;44512;53.046;18.604;2023-04-10T02:21:00;102649.39;;;8.93;57.67
58739;BME280;44512;53.046;18.604;2023-04-10T02:31:27;102658.34;;;8.83;57.91
58739;BME280;44512;53.046;18.604;2023-04-10T02:41:56;102654.65;;;8.75;58.16
58739;BME280;44512;53.046;18.604;2023-04-10T02:52:24;102666.15;;;8.67;58.34
58739;BME280;44512;53.046;18.604;2023-04-10T03:02:53;102665.71;;;8.62;58.48
58739;BME280;44512;53.046;18.604;2023-04-10T03:13:22;102664.28;;;8.58;58.58
58739;BME280;44512;53.046;18.604;2023-04-10T03:23:49;102677.37;;;8.53;58.64
58739;BME280;44512;53.046;18.604;2023-04-10T03:34:18;102675.35;;;8.45;58.79
58739;BME280;44512;53.046;18.604;2023-04-10T03:44:46;102685.85;;;8.39;58.99
58739;BME280;44512;53.046;18.604;2023-04-10T03:55:15;102672.45;;;8.27;59.12
58739;BME280;44512;53.046;18.604;2023-04-10T04:05:43;102673.56;;;8.25;59.23
58739;BME280;44512;53.046;18.604;2023-04-10T04:16:12;102665.02;;;8.20;59.36
58739;BME280;44512;53.046;18.604;2023-04-10T04:26:40;102676.38;;;8.14;59.68
58739;BME280;44512;53.046;18.604;2023-04-10T04:37:08;102681.18;;;8.10;59.79
58739;BME280;44512;53.046;18.604;2023-04-10T04:47:37;102691.97;;;8.10;60.00
58739;BME280;44512;53.046;18.604;2023-04-10T04:58:05;102708.14;;;8.10;60.19
58739;BME280;44512;53.046;18.604;2023-04-10T05:08:34;102717.23;;;8.09;60.50
58739;BME280;44512;53.046;18.604;2023-04-10T05:19:02;102730.73;;;8.09;60.81
58739;BME280;44512;53.046;18.604;2023-04-10T05:29:31;102739.52;;;8.11;60.94
58739;BME280;44512;53.046;18.604;2023-04-10T05:39:59;102730.92;;;8.17;61.11
58739;BME280;44512;53.046;18.604;2023-04-10T05:50:27;102737.72;;;8.21;61.35
58739;BME280;44512;53.046;18.604;2023-04-10T06:00:56;102735.20;;;8.29;61.47
58739;BME280;44512;53.046;18.604;2023-04-10T06:11:24;102750.62;;;8.39;61.40
58739;BME280;44512;53.046;18.604;2023-04-10T06:21:53;102744.66;;;8.45;61.39
58739;BME280;44512;53.046;18.604;2023-04-10T06:32:21;102743.12;;;8.52;61.42
58739;BME280;44512;53.046;18.604;2023-04-10T06:42:49;102746.98;;;8.59;61.51
58739;BME280;44512;53.046;18.604;2023-04-10T06:53:18;102742.47;;;8.69;61.71
58739;BME280;44512;53.046;18.604;2023-04-10T07:03:46;102748.74;;;8.79;61.99
58739;BME280;44512;53.046;18.604;2023-04-10T07:14:15;102749.31;;;8.93;62.04
58739;BME280;44512;53.046;18.604;2023-04-10T07:24:43;102747.05;;;9.07;61.90
58739;BME280;44512;53.046;18.604;2023-04-10T07:35:11;102743.09;;;9.21;61.78
58739;BME280;44512;53.046;18.604;2023-04-10T07:45:40;102746.50;;;9.33;61.15
58739;BME280;44512;53.046;18.604;2023-04-10T07:56:14;102751.59;;;9.46;61.10
58739;BME280;44512;53.046;18.604;2023-04-10T08:06:37;102735.92;;;9.59;60.94
58739;BME280;44512;53.046;18.604;2023-04-10T08:17:05;102729.23;;;9.73;60.79
58739;BME280;44512;53.046;18.604;2023-04-10T08:27:33;102727.89;;;9.86;60.54
58739;BME280;44512;53.046;18.604;2023-04-10T08:38:02;102711.91;;;10.03;60.72
58739;BME280;44512;53.046;18.604;2023-04-10T08:48:37;102714.67;;;10.21;60.90
58739;BME280;44512;53.046;18.604;2023-04-10T08:59:00;102702.93;;;10.39;61.11
58739;BME280;44512;53.046;18.604;2023-04-10T09:09:27;102688.41;;;10.58;61.02
58739;BME280;44512;53.046;18.604;2023-04-10T09:19:55;102688.44;;;10.76;61.17
58739;BME280;44512;53.046;18.604;2023-04-10T09:35:36;102672.27;;;11.02;61.85
58739;BME280;44512;53.046;18.604;2023-04-10T09:46:04;102657.27;;;11.16;62.17
58739;BME280;44512;53.046;18.604;2023-04-10T09:56:35;102641.16;;;11.32;62.25
58739;BME280;44512;53.046;18.604;2023-04-10T10:07:00;102635.84;;;11.48;61.96
58739;BME280;44512;53.046;18.604;2023-04-10T10:17:31;102621.35;;;11.66;61.60
58739;BME280;44512;53.046;18.604;2023-04-10T10:27:58;102607.20;;;11.80;61.43
58739;BME280;44512;53.046;18.604;2023-04-10T10:38:26;102606.45;;;11.96;61.30
58739;BME280;44512;53.046;18.604;2023-04-10T10:48:57;102599.55;;;12.10;60.92
58739;BME280;44512;53.046;18.604;2023-04-10T11:09:54;102584.98;;;12.35;60.63
58739;BME280;44512;53.046;18.604;2023-04-10T11:20:19;102579.26;;;12.46;60.42
58739;BME280;44512;53.046;18.604;2023-04-10T11:30:47;102569.44;;;12.62;59.68
58739;BME280;44512;53.046;18.604;2023-04-10T11:41:15;102556.52;;;12.72;59.46
58739;BME280;44512;53.046;18.604;2023-04-10T11:51:46;102546.13;;;12.92;59.34
58739;BME280;44512;53.046;18.604;2023-04-10T12:02:13;102535.73;;;13.12;58.91
58739;BME280;44512;53.046;18.604;2023-04-10T12:12:40;102519.74;;;13.33;58.32
58739;BME280;44512;53.046;18.604;2023-04-10T12:23:09;102505.06;;;13.50;57.74
58739;BME280;44512;53.046;18.604;2023-04-10T12:33:38;102485.91;;;13.75;57.17
58739;BME280;44512;53.046;18.604;2023-04-10T12:44:08;102479.10;;;14.02;56.67
58739;BME280;44512;53.046;18.604;2023-04-10T12:54:35;102460.76;;;14.19;56.38
58739;BME280;44512;53.046;18.604;2023-04-10T13:05:03;102453.14;;;14.37;56.53
58739;BME280;44512;53.046;18.604;2023-04-10T13:15:30;102442.41;;;14.58;56.24
58739;BME280;44512;53.046;18.604;2023-04-10T13:25:59;102423.16;;;14.75;56.20
58739;BME280;44512;53.046;18.604;2023-04-10T13:36:28;102407.09;;;14.95;56.07
58739;BME280;44512;53.046;18.604;2023-04-10T13:46:56;102401.52;;;15.18;55.32
58739;BME280;44512;53.046;18.604;2023-04-10T13:57:24;102384.92;;;15.34;53.65
58739;BME280;44512;53.046;18.604;2023-04-10T14:07:52;102369.87;;;15.38;53.41
58739;BME280;44512;53.046;18.604;2023-04-10T14:18:21;102364.48;;;15.45;52.93
58739;BME280;44512;53.046;18.604;2023-04-10T14:28:49;102359.29;;;15.50;52.53
58739;BME280;44512;53.046;18.604;2023-04-10T14:39:18;102343.38;;;15.53;51.87
58739;BME280;44512;53.046;18.604;2023-04-10T14:49:46;102338.56;;;15.55;50.99
58739;BME280;44512;53.046;18.604;2023-04-10T15:00:15;102315.05;;;15.54;51.25
58739;BME280;44512;53.046;18.604;2023-04-10T15:10:42;102308.75;;;15.54;51.32
58739;BME280;44512;53.046;18.604;2023-04-10T15:21:11;102300.77;;;15.52;51.49
58739;BME280;44512;53.046;18.604;2023-04-10T15:31:40;102288.80;;;15.53;51.67
58739;BME280;44512;53.046;18.604;2023-04-10T15:42:08;102286.97;;;15.60;51.53
58739;BME280;44512;53.046;18.604;2023-04-10T15:52:36;102257.48;;;15.71;51.55
58739;BME280;44512;53.046;18.604;2023-04-10T16:03:04;102253.48;;;15.95;51.26
58739;BME280;44512;53.046;18.604;2023-04-10T16:13:33;102240.45;;;16.25;50.34
58739;BME280;44512;53.046;18.604;2023-04-10T16:24:01;102215.92;;;16.38;49.39
58739;BME280;44512;53.046;18.604;2023-04-10T16:34:29;102209.00;;;16.42;48.69
58739;BME280;44512;53.046;18.604;2023-04-10T16:44:58;102193.22;;;16.37;48.59
58739;BME280;44512;53.046;18.604;2023-04-10T16:55:26;102179.74;;;16.29;48.55
58739;BME280;44512;53.046;18.604;2023-04-10T17:05:54;102183.48;;;16.22;48.76
58739;BME280;44512;53.046;18.604;2023-04-10T17:16:23;102176.48;;;16.12;48.96
58739;BME280;44512;53.046;18.604;2023-04-10T17:26:51;102171.80;;;16.00;49.72
58739;BME280;44512;53.046;18.604;2023-04-10T17:37:19;102167.27;;;15.79;50.50
58739;BME280;44512;53.046;18.604;2023-04-10T17:47:48;102168.97;;;15.58;50.98
58739;BME280;44512;53.046;18.604;2023-04-10T17:58:16;102162.06;;;15.34;51.46
58739;BME280;44512;53.046;18.604;2023-04-10T18:08:44;102160.61;;;15.10;51.95
58739;BME280;44512;53.046;18.604;2023-04-10T18:19:13;102163.34;;;14.89;52.42
58739;BME280;44512;53.046;18.604;2023-04-10T18:29:42;102174.19;;;14.68;52.84
58739;BME280;44512;53.046;18.604;2023-04-10T18:40:10;102166.79;;;14.47;53.29
58739;BME280;44512;53.046;18.604;2023-04-10T18:50:38;102162.80;;;14.28;53.70
58739;BME280;44512;53.046;18.604;2023-04-10T19:01:06;102150.52;;;14.02;54.18
58739;BME280;44512;53.046;18.604;2023-04-10T19:11:35;102158.13;;;13.92;54.29
58739;BME280;44512;53.046;18.604;2023-04-10T19:22:03;102149.31;;;13.75;54.49
58739;BME280;44512;53.046;18.604;2023-04-10T19:32:32;102135.69;;;13.61;54.64
58739;BME280;44512;53.046;18.604;2023-04-10T19:43:00;102123.76;;;13.47;54.76
58739;BME280;44512;53.046;18.604;2023-04-10T19:53:28;102110.12;;;13.32;54.83
58739;BME280;44512;53.046;18.604;2023-04-10T20:03:57;102104.81;;;13.16;55.00
58739;BME280;44512;53.046;18.604;2023-04-10T20:14:25;102090.33;;;13.00;55.12
58739;BME280;44512;53.046;18.604;2023-04-10T20:24:53;102076.70;;;12.86;55.20
58739;BME280;44512;53.046;18.604;2023-04-10T20:35:22;102060.19;;;12.72;55.33
58739;BME280;44512;53.046;18.604;2023-04-10T20:45:50;102057.41;;;12.58;55.61
58739;BME280;44512;53.046;18.604;2023-04-10T20:56:19;102047.97;;;12.45;55.78
58739;BME280;44512;53.046;18.604;2023-04-10T21:06:47;102043.16;;;12.33;55.92
58739;BME280;44512;53.046;18.604;2023-04-10T21:17:17;102041.05;;;12.20;56.07
58739;BME280;44512;53.046;18.604;2023-04-10T21:27:44;102034.31;;;12.08;56.37
58739;BME280;44512;53.046;18.604;2023-04-10T21:38:12;102022.18;;;11.95;56.50
58739;BME280;44512;53.046;18.604;2023-04-10T21:48:41;102007.98;;;11.85;56.63
58739;BME280;44512;53.046;18.604;2023-04-10T21:59:09;101994.80;;;11.74;57.17
58739;BME280;44512;53.046;18.604;2023-04-10T22:09:37;101979.57;;;11.65;57.35
58739;BME280;44512;53.046;18.604;2023-04-10T22:20:07;101965.70;;;11.60;57.93
58739;BME280;44512;53.046;18.604;2023-04-10T22:30:34;101950.61;;;11.57;58.27
58739;BME280;44512;53.046;18.604;2023-04-10T22:41:03;101935.90;;;11.52;58.12
58739;BME280;44512;53.046;18.604;2023-04-10T22:51:31;101914.08;;;11.45;58.28
58739;BME280;44512;53.046;18.604;2023-04-10T23:02:00;101902.43;;;11.36;58.31
58739;BME280;44512;53.046;18.604;2023-04-10T23:12:28;101883.51;;;11.28;58.32
58739;BME280;44512;53.046;18.604;2023-04-10T23:22:57;101871.02;;;11.19;58.37
58739;BME280;44512;53.046;18.604;2023-04-10T23:33:25;101849.55;;;11.09;58.76
58739;BME280;44512;53.046;18.604;2023-04-10T23:43:54;101837.73;;;11.02;58.94
58739;BME280;44512;53.046;18.604;2023-04-10T23:54:22;101821.33;;;10.95;59.33
